Green Creek, Illinois
Current Conditions -  °F | °C
As of 3:35 PM on Friday 31 Oct 2014 (Local Time) from K1H2 Reporting Station
Overcast Overcast  
Wind Chill: 34°   Ceiling: 6000
Heat Index: 43°   Visibility: 10mi
Dew Point: 23°   Wind: 20mph
Humidity: 45%   Direction: 330°NNW
Pressure: 30.2"   Gusts: 31mph
Location:  39.1183°N, 88.6059°W
Report Text: K1H2 312035Z AUTO 33017G27KT 10SM OVC060 06/M05 A3020 RMK AO2 T00601052
Loading
Personal Weather Stations






























Interactive Weather Map
Tropical Storm Tracking
New forecast layout! Learn more

10-Day Weather Forecast

Advertisements
Track Severe Weather on mobile